sensor_id;sensor_type;location;lat;lon;timestamp;P1;durP1;ratioP1;P2;durP2;ratioP2
56233;SDS011;42141;53.240;6.580;2023-04-15T00:00:29;9.85;;;5.03;;
56233;SDS011;42141;53.240;6.580;2023-04-15T00:02:55;10.57;;;6.15;;
56233;SDS011;42141;53.240;6.580;2023-04-15T00:05:20;12.15;;;6.13;;
56233;SDS011;42141;53.240;6.580;2023-04-15T00:07:46;13.50;;;5.60;;
56233;SDS011;42141;53.240;6.580;2023-04-15T00:10:12;8.52;;;5.00;;
56233;SDS011;42141;53.240;6.580;2023-04-15T00:12:41;15.68;;;4.95;;
56233;SDS011;42141;53.240;6.580;2023-04-15T00:15:07;13.48;;;5.18;;
56233;SDS011;42141;53.240;6.580;2023-04-15T00:17:33;15.68;;;5.05;;
56233;SDS011;42141;53.240;6.580;2023-04-15T00:20:00;11.75;;;4.75;;
56233;SDS011;42141;53.240;6.580;2023-04-15T00:22:26;10.13;;;5.15;;
56233;SDS011;42141;53.240;6.580;2023-04-15T00:24:52;9.95;;;4.95;;
56233;SDS011;42141;53.240;6.580;2023-04-15T00:27:18;9.90;;;5.70;;
56233;SDS011;42141;53.240;6.580;2023-04-15T00:29:44;10.32;;;4.53;;
56233;SDS011;42141;53.240;6.580;2023-04-15T00:32:10;11.27;;;5.00;;
56233;SDS011;42141;53.240;6.580;2023-04-15T00:34:35;11.60;;;5.38;;
56233;SDS011;42141;53.240;6.580;2023-04-15T00:37:01;9.07;;;4.75;;
56233;SDS011;42141;53.240;6.580;2023-04-15T00:39:27;17.65;;;5.28;;
56233;SDS011;42141;53.240;6.580;2023-04-15T00:41:53;11.75;;;5.28;;
56233;SDS011;42141;53.240;6.580;2023-04-15T00:44:19;13.57;;;5.55;;
56233;SDS011;42141;53.240;6.580;2023-04-15T00:46:45;13.38;;;5.18;;
56233;SDS011;42141;53.240;6.580;2023-04-15T00:49:12;11.38;;;5.70;;
56233;SDS011;42141;53.240;6.580;2023-04-15T00:51:38;12.43;;;6.07;;
56233;SDS011;42141;53.240;6.580;2023-04-15T00:54:07;14.25;;;6.10;;
56233;SDS011;42141;53.240;6.580;2023-04-15T00:56:36;10.23;;;5.65;;
56233;SDS011;42141;53.240;6.580;2023-04-15T00:59:03;12.15;;;6.20;;
56233;SDS011;42141;53.240;6.580;2023-04-15T01:01:30;9.98;;;5.68;;
56233;SDS011;42141;53.240;6.580;2023-04-15T01:03:58;11.85;;;6.13;;
56233;SDS011;42141;53.240;6.580;2023-04-15T01:06:24;16.13;;;6.53;;
56233;SDS011;42141;53.240;6.580;2023-04-15T01:08:51;10.75;;;5.57;;
56233;SDS011;42141;53.240;6.580;2023-04-15T01:11:18;12.18;;;5.95;;
56233;SDS011;42141;53.240;6.580;2023-04-15T01:13:45;14.02;;;6.28;;
56233;SDS011;42141;53.240;6.580;2023-04-15T01:16:11;12.00;;;5.70;;
56233;SDS011;42141;53.240;6.580;2023-04-15T01:18:37;16.75;;;5.70;;
56233;SDS011;42141;53.240;6.580;2023-04-15T01:21:04;13.40;;;6.78;;
56233;SDS011;42141;53.240;6.580;2023-04-15T01:23:31;18.02;;;6.43;;
56233;SDS011;42141;53.240;6.580;2023-04-15T01:26:00;11.80;;;6.30;;
56233;SDS011;42141;53.240;6.580;2023-04-15T01:28:27;15.25;;;6.63;;
56233;SDS011;42141;53.240;6.580;2023-04-15T01:31:06;11.80;;;6.15;;
56233;SDS011;42141;53.240;6.580;2023-04-15T01:33:39;9.50;;;5.72;;
56233;SDS011;42141;53.240;6.580;2023-04-15T01:36:07;12.40;;;6.45;;
56233;SDS011;42141;53.240;6.580;2023-04-15T01:38:34;16.58;;;6.38;;
56233;SDS011;42141;53.240;6.580;2023-04-15T01:41:01;9.43;;;6.00;;
56233;SDS011;42141;53.240;6.580;2023-04-15T01:43:28;14.60;;;6.88;;
56233;SDS011;42141;53.240;6.580;2023-04-15T01:45:54;18.10;;;7.55;;
56233;SDS011;42141;53.240;6.580;2023-04-15T01:48:20;11.93;;;6.75;;
56233;SDS011;42141;53.240;6.580;2023-04-15T01:50:47;11.90;;;6.35;;
56233;SDS011;42141;53.240;6.580;2023-04-15T01:53:13;10.35;;;6.07;;
56233;SDS011;42141;53.240;6.580;2023-04-15T01:55:39;9.80;;;6.80;;
56233;SDS011;42141;53.240;6.580;2023-04-15T01:58:05;14.02;;;6.57;;
56233;SDS011;42141;53.240;6.580;2023-04-15T02:00:31;14.20;;;8.88;;
56233;SDS011;42141;53.240;6.580;2023-04-15T02:02:57;11.20;;;7.38;;
56233;SDS011;42141;53.240;6.580;2023-04-15T02:05:23;14.23;;;7.60;;
56233;SDS011;42141;53.240;6.580;2023-04-15T02:07:50;16.67;;;8.48;;
56233;SDS011;42141;53.240;6.580;2023-04-15T02:10:15;13.38;;;8.48;;
56233;SDS011;42141;53.240;6.580;2023-04-15T02:12:41;17.00;;;8.60;;
56233;SDS011;42141;53.240;6.580;2023-04-15T02:15:07;19.23;;;8.77;;
56233;SDS011;42141;53.240;6.580;2023-04-15T02:17:34;17.00;;;8.75;;
56233;SDS011;42141;53.240;6.580;2023-04-15T02:20:01;14.48;;;8.80;;
56233;SDS011;42141;53.240;6.580;2023-04-15T02:22:29;13.32;;;8.20;;
56233;SDS011;42141;53.240;6.580;2023-04-15T02:24:55;20.30;;;8.93;;
56233;SDS011;42141;53.240;6.580;2023-04-15T02:27:21;12.18;;;8.57;;
56233;SDS011;42141;53.240;6.580;2023-04-15T02:29:47;17.85;;;9.82;;
56233;SDS011;42141;53.240;6.580;2023-04-15T02:32:15;17.23;;;9.23;;
56233;SDS011;42141;53.240;6.580;2023-04-15T02:34:41;11.90;;;8.75;;
56233;SDS011;42141;53.240;6.580;2023-04-15T02:37:07;14.63;;;8.75;;
56233;SDS011;42141;53.240;6.580;2023-04-15T02:39:33;15.85;;;9.52;;
56233;SDS011;42141;53.240;6.580;2023-04-15T02:41:59;14.55;;;8.70;;
56233;SDS011;42141;53.240;6.580;2023-04-15T02:44:28;14.30;;;9.95;;
56233;SDS011;42141;53.240;6.580;2023-04-15T02:46:55;16.38;;;9.88;;
56233;SDS011;42141;53.240;6.580;2023-04-15T02:49:22;13.80;;;9.43;;
56233;SDS011;42141;53.240;6.580;2023-04-15T02:51:48;15.23;;;9.02;;
56233;SDS011;42141;53.240;6.580;2023-04-15T02:54:18;15.95;;;10.07;;
56233;SDS011;42141;53.240;6.580;2023-04-15T02:56:44;19.73;;;9.48;;
56233;SDS011;42141;53.240;6.580;2023-04-15T02:59:11;19.70;;;10.02;;
56233;SDS011;42141;53.240;6.580;2023-04-15T03:01:37;15.15;;;9.90;;
56233;SDS011;42141;53.240;6.580;2023-04-15T03:04:02;19.00;;;11.35;;
56233;SDS011;42141;53.240;6.580;2023-04-15T03:06:28;17.48;;;10.32;;
56233;SDS011;42141;53.240;6.580;2023-04-15T03:08:54;19.70;;;11.48;;
56233;SDS011;42141;53.240;6.580;2023-04-15T03:11:21;17.92;;;10.70;;
56233;SDS011;42141;53.240;6.580;2023-04-15T03:13:46;17.40;;;12.18;;
56233;SDS011;42141;53.240;6.580;2023-04-15T03:16:12;22.40;;;11.45;;
56233;SDS011;42141;53.240;6.580;2023-04-15T03:18:38;21.20;;;11.30;;
56233;SDS011;42141;53.240;6.580;2023-04-15T03:21:03;16.67;;;10.80;;
56233;SDS011;42141;53.240;6.580;2023-04-15T03:23:30;17.67;;;11.38;;
56233;SDS011;42141;53.240;6.580;2023-04-15T03:25:56;20.30;;;11.65;;
56233;SDS011;42141;53.240;6.580;2023-04-15T03:28:23;17.63;;;11.25;;
56233;SDS011;42141;53.240;6.580;2023-04-15T03:30:48;18.92;;;11.90;;
56233;SDS011;42141;53.240;6.580;2023-04-15T03:33:14;24.88;;;12.07;;
56233;SDS011;42141;53.240;6.580;2023-04-15T03:35:40;23.80;;;13.05;;
56233;SDS011;42141;53.240;6.580;2023-04-15T03:38:06;19.55;;;11.40;;
56233;SDS011;42141;53.240;6.580;2023-04-15T03:40:31;22.75;;;12.45;;
56233;SDS011;42141;53.240;6.580;2023-04-15T03:42:57;20.25;;;11.52;;
56233;SDS011;42141;53.240;6.580;2023-04-15T03:45:23;19.27;;;12.73;;
56233;SDS011;42141;53.240;6.580;2023-04-15T03:47:49;20.33;;;12.45;;
56233;SDS011;42141;53.240;6.580;2023-04-15T03:50:15;20.52;;;12.52;;
56233;SDS011;42141;53.240;6.580;2023-04-15T03:52:41;21.73;;;12.70;;
56233;SDS011;42141;53.240;6.580;2023-04-15T03:55:07;17.50;;;11.38;;
56233;SDS011;42141;53.240;6.580;2023-04-15T03:57:33;19.90;;;12.27;;
56233;SDS011;42141;53.240;6.580;2023-04-15T04:00:03;22.48;;;14.07;;
56233;SDS011;42141;53.240;6.580;2023-04-15T04:02:30;20.02;;;13.35;;
56233;SDS011;42141;53.240;6.580;2023-04-15T04:04:55;21.50;;;13.48;;
56233;SDS011;42141;53.240;6.580;2023-04-15T04:07:22;26.88;;;14.27;;
56233;SDS011;42141;53.240;6.580;2023-04-15T04:09:48;20.08;;;13.82;;
56233;SDS011;42141;53.240;6.580;2023-04-15T04:12:14;20.73;;;13.15;;
56233;SDS011;42141;53.240;6.580;2023-04-15T04:14:40;19.73;;;13.27;;
56233;SDS011;42141;53.240;6.580;2023-04-15T04:17:05;24.35;;;13.23;;
56233;SDS011;42141;53.240;6.580;2023-04-15T04:19:31;18.05;;;12.10;;
56233;SDS011;42141;53.240;6.580;2023-04-15T04:21:57;21.00;;;13.18;;
56233;SDS011;42141;53.240;6.580;2023-04-15T04:24:23;18.23;;;12.35;;
56233;SDS011;42141;53.240;6.580;2023-04-15T04:26:49;17.90;;;12.45;;
56233;SDS011;42141;53.240;6.580;2023-04-15T04:29:15;26.45;;;12.45;;
56233;SDS011;42141;53.240;6.580;2023-04-15T04:31:40;20.30;;;12.48;;
56233;SDS011;42141;53.240;6.580;2023-04-15T04:34:06;17.38;;;11.98;;
56233;SDS011;42141;53.240;6.580;2023-04-15T04:36:32;15.63;;;11.52;;
56233;SDS011;42141;53.240;6.580;2023-04-15T04:38:58;13.70;;;10.43;;
56233;SDS011;42141;53.240;6.580;2023-04-15T04:41:23;15.75;;;10.35;;
56233;SDS011;42141;53.240;6.580;2023-04-15T04:43:49;14.32;;;10.00;;
56233;SDS011;42141;53.240;6.580;2023-04-15T04:46:15;14.05;;;9.77;;
56233;SDS011;42141;53.240;6.580;2023-04-15T04:48:44;15.32;;;10.85;;
56233;SDS011;42141;53.240;6.580;2023-04-15T04:51:09;16.77;;;10.63;;
56233;SDS011;42141;53.240;6.580;2023-04-15T04:53:35;13.98;;;9.85;;
56233;SDS011;42141;53.240;6.580;2023-04-15T04:56:02;15.15;;;9.90;;
56233;SDS011;42141;53.240;6.580;2023-04-15T04:58:28;13.98;;;9.48;;
56233;SDS011;42141;53.240;6.580;2023-04-15T05:00:53;14.70;;;9.25;;
56233;SDS011;42141;53.240;6.580;2023-04-15T05:03:20;13.23;;;9.75;;
56233;SDS011;42141;53.240;6.580;2023-04-15T05:05:46;14.73;;;9.80;;
56233;SDS011;42141;53.240;6.580;2023-04-15T05:08:13;15.48;;;10.05;;
56233;SDS011;42141;53.240;6.580;2023-04-15T05:10:39;13.18;;;9.50;;
56233;SDS011;42141;53.240;6.580;2023-04-15T05:13:05;13.75;;;10.30;;
56233;SDS011;42141;53.240;6.580;2023-04-15T05:15:31;16.77;;;10.52;;
56233;SDS011;42141;53.240;6.580;2023-04-15T05:17:57;18.75;;;10.82;;
56233;SDS011;42141;53.240;6.580;2023-04-15T05:20:23;18.30;;;10.27;;
56233;SDS011;42141;53.240;6.580;2023-04-15T05:22:48;17.27;;;11.13;;
56233;SDS011;42141;53.240;6.580;2023-04-15T05:25:14;15.05;;;10.13;;
56233;SDS011;42141;53.240;6.580;2023-04-15T05:27:40;15.43;;;10.90;;
56233;SDS011;42141;53.240;6.580;2023-04-15T05:30:06;18.55;;;11.02;;
56233;SDS011;42141;53.240;6.580;2023-04-15T05:32:33;16.08;;;11.10;;
56233;SDS011;42141;53.240;6.580;2023-04-15T05:34:58;14.70;;;10.98;;
56233;SDS011;42141;53.240;6.580;2023-04-15T05:37:24;15.57;;;9.85;;
56233;SDS011;42141;53.240;6.580;2023-04-15T05:39:50;19.70;;;11.85;;
56233;SDS011;42141;53.240;6.580;2023-04-15T05:42:16;14.85;;;10.13;;
56233;SDS011;42141;53.240;6.580;2023-04-15T05:44:42;15.55;;;9.85;;
56233;SDS011;42141;53.240;6.580;2023-04-15T05:47:08;12.63;;;9.20;;
56233;SDS011;42141;53.240;6.580;2023-04-15T05:49:35;16.00;;;9.82;;
56233;SDS011;42141;53.240;6.580;2023-04-15T05:52:00;16.40;;;10.02;;
56233;SDS011;42141;53.240;6.580;2023-04-15T05:54:26;14.63;;;9.80;;
56233;SDS011;42141;53.240;6.580;2023-04-15T05:56:52;16.90;;;9.85;;
56233;SDS011;42141;53.240;6.580;2023-04-15T05:59:18;16.13;;;9.30;;
56233;SDS011;42141;53.240;6.580;2023-04-15T06:01:44;19.67;;;10.57;;
56233;SDS011;42141;53.240;6.580;2023-04-15T06:04:09;14.40;;;10.27;;
56233;SDS011;42141;53.240;6.580;2023-04-15T06:06:35;17.08;;;10.80;;
56233;SDS011;42141;53.240;6.580;2023-04-15T06:09:02;17.42;;;9.48;;
56233;SDS011;42141;53.240;6.580;2023-04-15T06:11:28;19.60;;;11.18;;
56233;SDS011;42141;53.240;6.580;2023-04-15T06:13:57;16.33;;;10.57;;
56233;SDS011;42141;53.240;6.580;2023-04-15T06:16:23;16.40;;;10.20;;
56233;SDS011;42141;53.240;6.580;2023-04-15T06:18:51;17.17;;;10.48;;
56233;SDS011;42141;53.240;6.580;2023-04-15T06:21:17;15.77;;;10.27;;
56233;SDS011;42141;53.240;6.580;2023-04-15T06:23:43;15.38;;;9.07;;
56233;SDS011;42141;53.240;6.580;2023-04-15T06:26:09;19.02;;;9.80;;
56233;SDS011;42141;53.240;6.580;2023-04-15T06:28:35;20.25;;;13.00;;
56233;SDS011;42141;53.240;6.580;2023-04-15T06:31:00;16.92;;;10.27;;
56233;SDS011;42141;53.240;6.580;2023-04-15T06:33:26;16.98;;;10.35;;
56233;SDS011;42141;53.240;6.580;2023-04-15T06:35:52;15.55;;;10.05;;
56233;SDS011;42141;53.240;6.580;2023-04-15T06:38:18;15.18;;;9.70;;
56233;SDS011;42141;53.240;6.580;2023-04-15T06:40:43;18.15;;;9.95;;
56233;SDS011;42141;53.240;6.580;2023-04-15T06:43:09;15.32;;;8.85;;
56233;SDS011;42141;53.240;6.580;2023-04-15T06:45:35;17.30;;;9.15;;
56233;SDS011;42141;53.240;6.580;2023-04-15T06:48:01;19.73;;;9.32;;
56233;SDS011;42141;53.240;6.580;2023-04-15T06:50:27;13.50;;;8.13;;
56233;SDS011;42141;53.240;6.580;2023-04-15T06:52:53;12.77;;;8.60;;
56233;SDS011;42141;53.240;6.580;2023-04-15T06:55:20;13.82;;;9.13;;
56233;SDS011;42141;53.240;6.580;2023-04-15T06:57:46;13.77;;;8.50;;
56233;SDS011;42141;53.240;6.580;2023-04-15T07:00:12;11.48;;;7.63;;
56233;SDS011;42141;53.240;6.580;2023-04-15T07:02:38;21.40;;;10.35;;
56233;SDS011;42141;53.240;6.580;2023-04-15T07:05:05;14.63;;;8.32;;
56233;SDS011;42141;53.240;6.580;2023-04-15T07:07:31;18.50;;;9.30;;
56233;SDS011;42141;53.240;6.580;2023-04-15T07:09:57;13.15;;;8.15;;
56233;SDS011;42141;53.240;6.580;2023-04-15T07:12:22;9.80;;;7.22;;
56233;SDS011;42141;53.240;6.580;2023-04-15T07:14:48;11.95;;;7.38;;
56233;SDS011;42141;53.240;6.580;2023-04-15T07:17:14;10.45;;;6.63;;
56233;SDS011;42141;53.240;6.580;2023-04-15T07:19:39;15.70;;;7.93;;
56233;SDS011;42141;53.240;6.580;2023-04-15T07:22:05;12.98;;;7.10;;
56233;SDS011;42141;53.240;6.580;2023-04-15T07:24:31;8.82;;;5.50;;
56233;SDS011;42141;53.240;6.580;2023-04-15T07:26:57;9.63;;;5.43;;
56233;SDS011;42141;53.240;6.580;2023-04-15T07:29:24;8.70;;;5.30;;
56233;SDS011;42141;53.240;6.580;2023-04-15T07:31:51;12.48;;;5.25;;
56233;SDS011;42141;53.240;6.580;2023-04-15T07:34:17;9.70;;;5.55;;
56233;SDS011;42141;53.240;6.580;2023-04-15T07:36:44;8.82;;;5.35;;
56233;SDS011;42141;53.240;6.580;2023-04-15T07:39:14;12.70;;;6.20;;
56233;SDS011;42141;53.240;6.580;2023-04-15T07:41:40;9.27;;;4.85;;
56233;SDS011;42141;53.240;6.580;2023-04-15T07:44:06;10.73;;;5.57;;
56233;SDS011;42141;53.240;6.580;2023-04-15T07:46:32;9.57;;;5.47;;
56233;SDS011;42141;53.240;6.580;2023-04-15T07:48:57;11.13;;;5.40;;
56233;SDS011;42141;53.240;6.580;2023-04-15T07:51:23;9.07;;;5.28;;
56233;SDS011;42141;53.240;6.580;2023-04-15T07:53:49;8.40;;;5.45;;
56233;SDS011;42141;53.240;6.580;2023-04-15T07:56:15;9.38;;;4.65;;
56233;SDS011;42141;53.240;6.580;2023-04-15T07:58:41;10.45;;;5.60;;
56233;SDS011;42141;53.240;6.580;2023-04-15T08:01:07;8.80;;;4.95;;
56233;SDS011;42141;53.240;6.580;2023-04-15T08:03:33;7.60;;;4.47;;
56233;SDS011;42141;53.240;6.580;2023-04-15T08:05:59;7.70;;;5.43;;
56233;SDS011;42141;53.240;6.580;2023-04-15T08:08:25;7.47;;;4.07;;
56233;SDS011;42141;53.240;6.580;2023-04-15T08:10:51;10.57;;;5.00;;
56233;SDS011;42141;53.240;6.580;2023-04-15T08:13:17;9.15;;;4.20;;
56233;SDS011;42141;53.240;6.580;2023-04-15T08:15:42;10.02;;;3.60;;
56233;SDS011;42141;53.240;6.580;2023-04-15T08:18:08;7.47;;;3.38;;
56233;SDS011;42141;53.240;6.580;2023-04-15T08:20:35;10.20;;;3.78;;
56233;SDS011;42141;53.240;6.580;2023-04-15T08:23:01;5.57;;;3.10;;
56233;SDS011;42141;53.240;6.580;2023-04-15T08:25:28;7.40;;;2.63;;
56233;SDS011;42141;53.240;6.580;2023-04-15T08:27:54;8.80;;;3.53;;
56233;SDS011;42141;53.240;6.580;2023-04-15T08:30:22;8.07;;;3.50;;
56233;SDS011;42141;53.240;6.580;2023-04-15T08:32:48;9.77;;;3.20;;
56233;SDS011;42141;53.240;6.580;2023-04-15T08:35:14;6.90;;;3.40;;
56233;SDS011;42141;53.240;6.580;2023-04-15T08:37:40;5.63;;;3.08;;
56233;SDS011;42141;53.240;6.580;2023-04-15T08:40:05;7.03;;;3.55;;
56233;SDS011;42141;53.240;6.580;2023-04-15T08:42:36;8.30;;;2.50;;
56233;SDS011;42141;53.240;6.580;2023-04-15T08:45:08;4.05;;;2.45;;
56233;SDS011;42141;53.240;6.580;2023-04-15T08:47:35;9.10;;;2.97;;
56233;SDS011;42141;53.240;6.580;2023-04-15T08:50:07;5.97;;;1.77;;
56233;SDS011;42141;53.240;6.580;2023-04-15T08:52:34;7.03;;;2.58;;
56233;SDS011;42141;53.240;6.580;2023-04-15T08:55:01;4.20;;;1.95;;
56233;SDS011;42141;53.240;6.580;2023-04-15T08:57:27;5.43;;;1.95;;
56233;SDS011;42141;53.240;6.580;2023-04-15T08:59:57;4.40;;;1.60;;
56233;SDS011;42141;53.240;6.580;2023-04-15T09:02:23;8.25;;;2.30;;
56233;SDS011;42141;53.240;6.580;2023-04-15T09:04:52;4.45;;;1.73;;
56233;SDS011;42141;53.240;6.580;2023-04-15T09:07:18;4.35;;;1.60;;
56233;SDS011;42141;53.240;6.580;2023-04-15T09:09:43;5.97;;;1.80;;
56233;SDS011;42141;53.240;6.580;2023-04-15T09:12:10;7.05;;;1.90;;
56233;SDS011;42141;53.240;6.580;2023-04-15T09:14:37;5.13;;;2.25;;
56233;SDS011;42141;53.240;6.580;2023-04-15T09:17:05;5.00;;;1.50;;
56233;SDS011;42141;53.240;6.580;2023-04-15T09:19:34;1.92;;;1.40;;
56233;SDS011;42141;53.240;6.580;2023-04-15T09:22:00;3.45;;;1.20;;
56233;SDS011;42141;53.240;6.580;2023-04-15T09:24:34;2.05;;;1.02;;
56233;SDS011;42141;53.240;6.580;2023-04-15T09:27:02;4.03;;;1.30;;
56233;SDS011;42141;53.240;6.580;2023-04-15T09:29:28;4.78;;;2.45;;
56233;SDS011;42141;53.240;6.580;2023-04-15T09:31:53;4.72;;;1.00;;
56233;SDS011;42141;53.240;6.580;2023-04-15T09:34:19;2.08;;;1.08;;
56233;SDS011;42141;53.240;6.580;2023-04-15T09:36:51;2.17;;;0.95;;
56233;SDS011;42141;53.240;6.580;2023-04-15T09:39:18;6.05;;;1.73;;
56233;SDS011;42141;53.240;6.580;2023-04-15T09:41:44;8.57;;;1.17;;
56233;SDS011;42141;53.240;6.580;2023-04-15T09:44:23;1.92;;;1.15;;
56233;SDS011;42141;53.240;6.580;2023-04-15T09:46:50;3.17;;;0.82;;
56233;SDS011;42141;53.240;6.580;2023-04-15T09:49:16;3.83;;;1.15;;
56233;SDS011;42141;53.240;6.580;2023-04-15T09:51:42;1.83;;;0.90;;
56233;SDS011;42141;53.240;6.580;2023-04-15T09:54:08;3.92;;;0.90;;
56233;SDS011;42141;53.240;6.580;2023-04-15T09:56:34;5.50;;;1.10;;
56233;SDS011;42141;53.240;6.580;2023-04-15T09:59:02;6.25;;;1.50;;
56233;SDS011;42141;53.240;6.580;2023-04-15T10:01:29;3.60;;;1.00;;
56233;SDS011;42141;53.240;6.580;2023-04-15T10:03:56;2.20;;;1.15;;
56233;SDS011;42141;53.240;6.580;2023-04-15T10:06:25;6.95;;;1.15;;
56233;SDS011;42141;53.240;6.580;2023-04-15T10:08:51;2.53;;;0.90;;
56233;SDS011;42141;53.240;6.580;2023-04-15T10:11:19;2.90;;;0.90;;
56233;SDS011;42141;53.240;6.580;2023-04-15T10:13:48;7.93;;;1.10;;
56233;SDS011;42141;53.240;6.580;2023-04-15T10:16:15;3.08;;;1.25;;
56233;SDS011;42141;53.240;6.580;2023-04-15T10:18:47;5.50;;;1.20;;
56233;SDS011;42141;53.240;6.580;2023-04-15T10:21:18;3.70;;;0.90;;
56233;SDS011;42141;53.240;6.580;2023-04-15T10:23:47;3.10;;;1.20;;
56233;SDS011;42141;53.240;6.580;2023-04-15T10:26:13;4.25;;;1.10;;
56233;SDS011;42141;53.240;6.580;2023-04-15T10:28:40;7.15;;;1.27;;
56233;SDS011;42141;53.240;6.580;2023-04-15T10:31:06;4.35;;;1.20;;
56233;SDS011;42141;53.240;6.580;2023-04-15T10:33:32;4.25;;;1.50;;
56233;SDS011;42141;53.240;6.580;2023-04-15T10:35:59;7.97;;;1.20;;
56233;SDS011;42141;53.240;6.580;2023-04-15T10:41:12;7.13;;;1.27;;
56233;SDS011;42141;53.240;6.580;2023-04-15T10:43:47;5.80;;;1.40;;
56233;SDS011;42141;53.240;6.580;2023-04-15T10:46:23;5.22;;;1.08;;
56233;SDS011;42141;53.240;6.580;2023-04-15T10:51:39;4.38;;;1.00;;
56233;SDS011;42141;53.240;6.580;2023-04-15T10:54:14;8.18;;;1.95;;
56233;SDS011;42141;53.240;6.580;2023-04-15T10:56:41;10.75;;;1.50;;
56233;SDS011;42141;53.240;6.580;2023-04-15T10:59:08;14.45;;;1.58;;
56233;SDS011;42141;53.240;6.580;2023-04-15T11:01:50;6.10;;;1.63;;
56233;SDS011;42141;53.240;6.580;2023-04-15T11:13:05;7.30;;;2.10;;
56233;SDS011;42141;53.240;6.580;2023-04-15T11:15:44;8.82;;;1.70;;
56233;SDS011;42141;53.240;6.580;2023-04-15T11:20:48;11.07;;;1.35;;
56233;SDS011;42141;53.240;6.580;2023-04-15T11:23:15;5.35;;;1.05;;
56233;SDS011;42141;53.240;6.580;2023-04-15T11:25:53;6.40;;;1.00;;
56233;SDS011;42141;53.240;6.580;2023-04-15T11:28:20;6.18;;;1.15;;
56233;SDS011;42141;53.240;6.580;2023-04-15T11:30:50;4.45;;;1.00;;
56233;SDS011;42141;53.240;6.580;2023-04-15T11:33:16;9.27;;;1.50;;
56233;SDS011;42141;53.240;6.580;2023-04-15T11:35:42;7.78;;;1.20;;
56233;SDS011;42141;53.240;6.580;2023-04-15T11:38:09;9.10;;;1.30;;
56233;SDS011;42141;53.240;6.580;2023-04-15T11:40:37;8.82;;;2.17;;
56233;SDS011;42141;53.240;6.580;2023-04-15T11:43:21;6.85;;;2.35;;
56233;SDS011;42141;53.240;6.580;2023-04-15T11:45:49;9.13;;;1.40;;
56233;SDS011;42141;53.240;6.580;2023-04-15T11:48:28;6.63;;;1.85;;
56233;SDS011;42141;53.240;6.580;2023-04-15T11:53:47;5.85;;;1.60;;
56233;SDS011;42141;53.240;6.580;2023-04-15T11:56:16;5.22;;;1.40;;
56233;SDS011;42141;53.240;6.580;2023-04-15T11:58:46;6.40;;;1.50;;
56233;SDS011;42141;53.240;6.580;2023-04-15T12:01:14;8.57;;;1.13;;
56233;SDS011;42141;53.240;6.580;2023-04-15T12:03:44;4.43;;;1.08;;
56233;SDS011;42141;53.240;6.580;2023-04-15T12:06:21;7.07;;;1.27;;
56233;SDS011;42141;53.240;6.580;2023-04-15T12:11:44;5.57;;;1.08;;
56233;SDS011;42141;53.240;6.580;2023-04-15T12:16:41;7.97;;;1.27;;
56233;SDS011;42141;53.240;6.580;2023-04-15T12:19:09;3.15;;;0.98;;
56233;SDS011;42141;53.240;6.580;2023-04-15T12:21:38;8.48;;;1.48;;
56233;SDS011;42141;53.240;6.580;2023-04-15T12:24:06;8.35;;;2.22;;
56233;SDS011;42141;53.240;6.580;2023-04-15T12:26:47;9.40;;;1.60;;
56233;SDS011;42141;53.240;6.580;2023-04-15T12:29:15;5.22;;;1.00;;
56233;SDS011;42141;53.240;6.580;2023-04-15T12:31:52;4.00;;;1.15;;
56233;SDS011;42141;53.240;6.580;2023-04-15T12:34:28;6.95;;;1.92;;
56233;SDS011;42141;53.240;6.580;2023-04-15T12:36:56;10.60;;;1.02;;
56233;SDS011;42141;53.240;6.580;2023-04-15T12:39:23;10.63;;;1.15;;
56233;SDS011;42141;53.240;6.580;2023-04-15T12:41:49;11.45;;;1.08;;
56233;SDS011;42141;53.240;6.580;2023-04-15T12:44:15;6.05;;;1.20;;
56233;SDS011;42141;53.240;6.580;2023-04-15T12:46:41;12.05;;;1.70;;
56233;SDS011;42141;53.240;6.580;2023-04-15T12:49:07;9.57;;;1.75;;
56233;SDS011;42141;53.240;6.580;2023-04-15T12:51:33;10.05;;;1.83;;
56233;SDS011;42141;53.240;6.580;2023-04-15T12:53:59;12.68;;;1.63;;
56233;SDS011;42141;53.240;6.580;2023-04-15T12:56:24;7.68;;;1.08;;
56233;SDS011;42141;53.240;6.580;2023-04-15T12:58:51;11.20;;;1.40;;
56233;SDS011;42141;53.240;6.580;2023-04-15T13:01:16;7.75;;;1.60;;
56233;SDS011;42141;53.240;6.580;2023-04-15T13:03:42;9.48;;;1.20;;
56233;SDS011;42141;53.240;6.580;2023-04-15T13:06:08;7.03;;;1.25;;
56233;SDS011;42141;53.240;6.580;2023-04-15T13:08:34;6.70;;;1.38;;
56233;SDS011;42141;53.240;6.580;2023-04-15T13:11:00;9.38;;;1.05;;
56233;SDS011;42141;53.240;6.580;2023-04-15T13:13:26;12.40;;;1.10;;
56233;SDS011;42141;53.240;6.580;2023-04-15T13:15:52;6.88;;;1.40;;
56233;SDS011;42141;53.240;6.580;2023-04-15T13:18:17;9.60;;;1.27;;
56233;SDS011;42141;53.240;6.580;2023-04-15T13:20:43;8.55;;;1.42;;
56233;SDS011;42141;53.240;6.580;2023-04-15T13:23:09;7.82;;;1.00;;
56233;SDS011;42141;53.240;6.580;2023-04-15T13:25:35;4.70;;;1.20;;
56233;SDS011;42141;53.240;6.580;2023-04-15T13:28:01;6.07;;;1.27;;
56233;SDS011;42141;53.240;6.580;2023-04-15T13:30:27;7.45;;;1.35;;
56233;SDS011;42141;53.240;6.580;2023-04-15T13:32:52;10.40;;;0.88;;
56233;SDS011;42141;53.240;6.580;2023-04-15T13:35:18;4.00;;;0.70;;
56233;SDS011;42141;53.240;6.580;2023-04-15T13:37:45;9.65;;;2.45;;
56233;SDS011;42141;53.240;6.580;2023-04-15T13:40:11;9.05;;;1.73;;
56233;SDS011;42141;53.240;6.580;2023-04-15T13:42:37;5.43;;;1.38;;
56233;SDS011;42141;53.240;6.580;2023-04-15T13:45:03;9.57;;;1.23;;
56233;SDS011;42141;53.240;6.580;2023-04-15T13:47:29;8.50;;;1.10;;
56233;SDS011;42141;53.240;6.580;2023-04-15T13:49:55;8.63;;;1.60;;
56233;SDS011;42141;53.240;6.580;2023-04-15T13:52:21;10.10;;;1.50;;
56233;SDS011;42141;53.240;6.580;2023-04-15T13:54:47;18.17;;;5.57;;
56233;SDS011;42141;53.240;6.580;2023-04-15T13:57:13;5.85;;;1.85;;
56233;SDS011;42141;53.240;6.580;2023-04-15T13:59:39;5.60;;;0.85;;
56233;SDS011;42141;53.240;6.580;2023-04-15T14:02:05;10.70;;;1.30;;
56233;SDS011;42141;53.240;6.580;2023-04-15T14:04:31;10.55;;;2.80;;
56233;SDS011;42141;53.240;6.580;2023-04-15T14:06:57;12.52;;;1.40;;
56233;SDS011;42141;53.240;6.580;2023-04-15T14:09:23;9.20;;;1.42;;
56233;SDS011;42141;53.240;6.580;2023-04-15T14:11:49;11.95;;;1.35;;
56233;SDS011;42141;53.240;6.580;2023-04-15T14:14:15;13.20;;;1.75;;
56233;SDS011;42141;53.240;6.580;2023-04-15T14:16:41;12.70;;;1.88;;
56233;SDS011;42141;53.240;6.580;2023-04-15T14:19:07;11.35;;;2.25;;
56233;SDS011;42141;53.240;6.580;2023-04-15T14:21:32;10.85;;;1.55;;
56233;SDS011;42141;53.240;6.580;2023-04-15T14:23:58;12.70;;;1.73;;
56233;SDS011;42141;53.240;6.580;2023-04-15T14:26:24;11.07;;;2.10;;
56233;SDS011;42141;53.240;6.580;2023-04-15T14:28:50;17.70;;;1.67;;
56233;SDS011;42141;53.240;6.580;2023-04-15T14:31:16;9.05;;;1.98;;
56233;SDS011;42141;53.240;6.580;2023-04-15T14:33:42;5.25;;;1.55;;
56233;SDS011;42141;53.240;6.580;2023-04-15T14:36:08;12.77;;;1.98;;
56233;SDS011;42141;53.240;6.580;2023-04-15T14:38:34;8.05;;;1.27;;
56233;SDS011;42141;53.240;6.580;2023-04-15T14:41:06;8.45;;;1.92;;
56233;SDS011;42141;53.240;6.580;2023-04-15T14:43:32;4.82;;;1.42;;
56233;SDS011;42141;53.240;6.580;2023-04-15T14:45:58;11.35;;;2.15;;
56233;SDS011;42141;53.240;6.580;2023-04-15T14:48:24;15.52;;;2.05;;
56233;SDS011;42141;53.240;6.580;2023-04-15T14:50:50;7.75;;;1.58;;
56233;SDS011;42141;53.240;6.580;2023-04-15T14:53:16;8.73;;;1.52;;
56233;SDS011;42141;53.240;6.580;2023-04-15T14:55:42;4.80;;;1.17;;
56233;SDS011;42141;53.240;6.580;2023-04-15T14:58:09;12.07;;;1.75;;
56233;SDS011;42141;53.240;6.580;2023-04-15T15:00:35;9.18;;;1.23;;